Time;durP1;ratioP1;P1;durP2;ratioP2;P2;SDS_P1;SDS_P2;PMS_P1;PMS_P2;Temp;Humidity;BMP_temperature;BMP_pressure;BME280_temperature;BME280_humidity;BME280_pressure;Samples;Min_cycle;Max_cycle;Signal;HPM_P1;HPM_P2
2022/03/24 00:01:22;;;;;;;4.95;2.83;;;;;;;;;;5032557;28;20436;-69
2022/03/24 00:03:48;;;;;;;5.10;2.25;;;;;;;;;;5047070;28;20033;-69
2022/03/24 00:06:14;;;;;;;3.50;2.10;;;;;;;;;;5044009;28;20079;-69
2022/03/24 00:08:40;;;;;;;3.95;2.28;;;;;;;;;;5039451;28;20493;-68
2022/03/24 00:11:06;;;;;;;3.78;1.95;;;;;;;;;;5033334;28;20036;-69
2022/03/24 00:13:32;;;;;;;4.57;2.00;;;;;;;;;;5044379;28;20583;-68
2022/03/24 00:15:59;;;;;;;3.63;2.00;;;;;;;;;;5050206;28;20071;-69
2022/03/24 00:18:25;;;;;;;3.92;2.00;;;;;;;;;;5046955;28;20108;-68
2022/03/24 00:20:51;;;;;;;4.68;2.00;;;;;;;;;;5038559;28;20021;-73
2022/03/24 00:23:17;;;;;;;3.60;2.15;;;;;;;;;;5043019;28;20365;-69
2022/03/24 00:25:43;;;;;;;4.45;2.08;;;;;;;;;;5042612;28;20505;-71
2022/03/24 00:28:10;;;;;;;3.65;2.10;;;;;;;;;;5048476;28;20087;-68
2022/03/24 00:30:36;;;;;;;3.38;1.80;;;;;;;;;;5049095;28;20061;-68
2022/03/24 00:33:03;;;;;;;4.78;2.20;;;;;;;;;;5041667;28;20043;-69
2022/03/24 00:35:29;;;;;;;3.50;1.67;;;;;;;;;;5039502;28;20064;-68
2022/03/24 00:37:55;;;;;;;4.18;2.05;;;;;;;;;;5044156;28;20056;-68
2022/03/24 00:40:21;;;;;;;3.40;1.92;;;;;;;;;;5045476;28;20425;-69
2022/03/24 00:42:47;;;;;;;4.97;2.20;;;;;;;;;;5050574;28;20033;-69
2022/03/24 00:45:13;;;;;;;5.22;2.25;;;;;;;;;;5043531;28;20029;-68
2022/03/24 00:47:39;;;;;;;4.55;2.20;;;;;;;;;;5043513;28;20025;-69
2022/03/24 00:50:07;;;;;;;3.50;2.00;;;;;;;;;;5043769;28;20029;-69
2022/03/24 00:52:34;;;;;;;3.47;1.90;;;;;;;;;;5043714;28;20512;-69
2022/03/24 00:55:00;;;;;;;4.32;1.85;;;;;;;;;;5049130;28;20066;-69
2022/03/24 00:57:27;;;;;;;4.22;1.75;;;;;;;;;;5048758;28;20037;-69
2022/03/24 00:59:53;;;;;;;4.25;1.88;;;;;;;;;;5039411;28;20472;-69
2022/03/24 01:02:19;;;;;;;2.95;1.75;;;;;;;;;;5043537;28;20110;-69
2022/03/24 01:04:45;;;;;;;3.75;1.88;;;;;;;;;;5043470;28;20022;-69
2022/03/24 01:07:12;;;;;;;5.30;1.92;;;;;;;;;;5048134;28;20037;-69
2022/03/24 01:09:38;;;;;;;3.97;1.88;;;;;;;;;;5033446;28;20033;-69
2022/03/24 01:12:05;;;;;;;6.10;1.98;;;;;;;;;;5042176;28;20041;-69
2022/03/24 01:14:35;;;;;;;3.40;1.85;;;;;;;;;;5043449;28;20375;-69
2022/03/24 01:17:02;;;;;;;2.80;1.73;;;;;;;;;;5043119;28;20013;-69
2022/03/24 01:19:28;;;;;;;3.05;2.00;;;;;;;;;;5042527;28;20041;-69
2022/03/24 01:21:54;;;;;;;3.70;1.77;;;;;;;;;;5051427;28;20106;-69
2022/03/24 01:24:20;;;;;;;2.78;1.65;;;;;;;;;;5042985;28;20570;-68
2022/03/24 01:26:46;;;;;;;5.00;1.98;;;;;;;;;;5038671;28;20029;-68
2022/03/24 01:29:13;;;;;;;3.42;1.90;;;;;;;;;;5042687;28;20039;-69
2022/03/24 01:31:42;;;;;;;4.55;2.00;;;;;;;;;;5042760;28;20041;-69
2022/03/24 01:34:09;;;;;;;3.80;1.83;;;;;;;;;;5047977;28;20029;-69
2022/03/24 01:36:35;;;;;;;3.72;2.00;;;;;;;;;;5046413;28;20247;-69
2022/03/24 01:39:01;;;;;;;4.95;1.85;;;;;;;;;;5042325;28;20029;-69
2022/03/24 01:41:27;;;;;;;4.13;1.80;;;;;;;;;;5042758;28;20033;-68
2022/03/24 01:43:53;;;;;;;4.00;1.70;;;;;;;;;;5043147;28;20076;-69
2022/03/24 01:46:22;;;;;;;4.72;1.95;;;;;;;;;;5045284;28;20038;-69
2022/03/24 01:48:48;;;;;;;3.35;1.80;;;;;;;;;;5049555;28;20064;-69
2022/03/24 01:51:14;;;;;;;3.60;2.00;;;;;;;;;;5042831;28;20025;-69
2022/03/24 01:53:40;;;;;;;2.88;1.83;;;;;;;;;;5042507;28;20033;-69
2022/03/24 01:56:07;;;;;;;5.25;1.85;;;;;;;;;;5042584;28;20036;-68
2022/03/24 01:58:34;;;;;;;3.13;1.77;;;;;;;;;;5042428;28;20034;-69
2022/03/24 02:01:21;;;;;;;3.58;1.60;;;;;;;;;;5049712;28;20078;-68
2022/03/24 02:03:48;;;;;;;4.33;1.70;;;;;;;;;;5049016;28;20056;-69
2022/03/24 02:06:14;;;;;;;2.80;1.73;;;;;;;;;;5042882;28;20036;-69
2022/03/24 02:08:40;;;;;;;3.17;1.33;;;;;;;;;;5036524;28;20104;-69
2022/03/24 02:11:06;;;;;;;3.85;1.40;;;;;;;;;;5032499;28;20053;-69
2022/03/24 02:13:33;;;;;;;3.88;1.70;;;;;;;;;;5042299;28;20065;-69
2022/03/24 02:16:01;;;;;;;2.95;1.60;;;;;;;;;;5050088;28;20086;-69
2022/03/24 02:18:27;;;;;;;4.20;1.75;;;;;;;;;;5044536;28;20032;-69
2022/03/24 02:20:53;;;;;;;3.05;1.60;;;;;;;;;;5042810;28;20484;-69
2022/03/24 02:23:19;;;;;;;3.08;1.60;;;;;;;;;;5041933;28;20158;-69
2022/03/24 02:25:45;;;;;;;3.70;1.77;;;;;;;;;;5042137;28;20033;-69
2022/03/24 02:28:11;;;;;;;2.83;1.65;;;;;;;;;;5047241;28;20362;-69
2022/03/24 02:30:37;;;;;;;5.05;1.40;;;;;;;;;;5047745;28;20124;-69
2022/03/24 02:33:03;;;;;;;2.00;1.50;;;;;;;;;;5046345;28;20174;-68
2022/03/24 02:35:29;;;;;;;4.43;1.75;;;;;;;;;;5046229;28;20032;-69
2022/03/24 02:37:55;;;;;;;4.07;1.65;;;;;;;;;;5045683;28;20028;-68
2022/03/24 02:40:21;;;;;;;2.80;1.35;;;;;;;;;;5048039;28;20026;-69
2022/03/24 02:42:47;;;;;;;2.83;1.65;;;;;;;;;;5052616;28;20027;-69
2022/03/24 02:45:13;;;;;;;4.13;2.03;;;;;;;;;;5046356;28;20464;-68
2022/03/24 02:47:40;;;;;;;2.08;1.45;;;;;;;;;;5045438;28;20032;-69
2022/03/24 02:50:06;;;;;;;2.65;1.50;;;;;;;;;;5046072;28;20107;-69
2022/03/24 02:52:32;;;;;;;3.20;1.48;;;;;;;;;;5044913;28;20375;-69
2022/03/24 02:54:58;;;;;;;2.90;1.48;;;;;;;;;;5053050;28;20024;-69
2022/03/24 02:57:24;;;;;;;2.63;1.55;;;;;;;;;;5050094;28;20021;-69
2022/03/24 02:59:50;;;;;;;4.60;1.38;;;;;;;;;;5041132;28;20032;-69
2022/03/24 03:02:18;;;;;;;2.08;1.40;;;;;;;;;;5046100;28;20377;-69
2022/03/24 03:04:44;;;;;;;3.70;1.45;;;;;;;;;;5046301;28;20060;-68
2022/03/24 03:07:11;;;;;;;2.40;1.42;;;;;;;;;;5050184;28;20024;-69
2022/03/24 03:09:38;;;;;;;3.10;1.63;;;;;;;;;;5040775;28;20017;-69
2022/03/24 03:12:05;;;;;;;3.08;1.38;;;;;;;;;;5045019;28;20041;-68
2022/03/24 03:14:31;;;;;;;2.92;1.40;;;;;;;;;;5046947;28;20108;-69
2022/03/24 03:16:58;;;;;;;3.05;1.40;;;;;;;;;;5045681;28;20060;-69
2022/03/24 03:19:24;;;;;;;2.33;1.40;;;;;;;;;;5046092;28;20037;-68
2022/03/24 03:21:50;;;;;;;3.08;1.70;;;;;;;;;;5052673;28;20048;-69
2022/03/24 03:24:18;;;;;;;2.10;1.30;;;;;;;;;;5044299;28;20485;-69
2022/03/24 03:26:44;;;;;;;2.42;1.50;;;;;;;;;;5046645;28;20438;-69
2022/03/24 03:29:10;;;;;;;4.63;1.60;;;;;;;;;;5045306;28;20104;-69
2022/03/24 03:31:36;;;;;;;2.22;1.45;;;;;;;;;;5044425;28;20073;-69
2022/03/24 03:34:07;;;;;;;3.40;1.50;;;;;;;;;;5050886;28;20476;-69
2022/03/24 03:36:33;;;;;;;2.53;1.40;;;;;;;;;;5049476;28;20087;-69
2022/03/24 03:38:59;;;;;;;2.80;1.60;;;;;;;;;;5045120;28;20128;-69
2022/03/24 03:41:27;;;;;;;5.10;1.77;;;;;;;;;;5044811;28;20040;-69
2022/03/24 03:43:53;;;;;;;2.53;1.60;;;;;;;;;;5044633;28;20103;-69
2022/03/24 03:46:19;;;;;;;2.05;1.40;;;;;;;;;;5047229;28;20907;-69
2022/03/24 03:48:46;;;;;;;3.13;1.55;;;;;;;;;;5050567;28;20594;-69
2022/03/24 03:51:12;;;;;;;3.42;1.67;;;;;;;;;;5044930;28;20033;-69
2022/03/24 03:53:38;;;;;;;2.47;1.60;;;;;;;;;;5044511;28;20118;-69
2022/03/24 03:56:05;;;;;;;6.13;1.98;;;;;;;;;;5044859;28;20040;-69
2022/03/24 03:58:31;;;;;;;3.72;1.75;;;;;;;;;;5044557;28;20037;-69
2022/03/24 04:00:57;;;;;;;2.85;1.40;;;;;;;;;;5052480;28;20029;-69
2022/03/24 04:03:27;;;;;;;3.25;1.50;;;;;;;;;;5046758;28;20067;-68
2022/03/24 04:05:57;;;;;;;4.15;1.60;;;;;;;;;;5044470;28;20036;-68
2022/03/24 04:08:23;;;;;;;2.50;1.50;;;;;;;;;;5040782;28;20032;-69
2022/03/24 04:10:50;;;;;;;4.43;1.50;;;;;;;;;;5031907;28;20120;-69
2022/03/24 04:13:17;;;;;;;3.70;1.50;;;;;;;;;;5047570;28;20075;-69
2022/03/24 04:15:43;;;;;;;2.90;1.40;;;;;;;;;;5049808;28;20438;-69
2022/03/24 04:18:09;;;;;;;3.63;1.85;;;;;;;;;;5033373;28;20143;-70
2022/03/24 04:20:36;;;;;;;3.58;1.50;;;;;;;;;;5031693;28;20525;-69
2022/03/24 04:23:03;;;;;;;3.22;1.42;;;;;;;;;;5031107;28;20116;-69
2022/03/24 04:25:29;;;;;;;3.22;1.38;;;;;;;;;;5031687;28;20989;-69
2022/03/24 04:27:55;;;;;;;2.35;1.40;;;;;;;;;;5033173;28;20026;-70
2022/03/24 04:30:21;;;;;;;5.03;1.98;;;;;;;;;;5030936;28;20038;-69
2022/03/24 04:32:48;;;;;;;2.55;1.63;;;;;;;;;;5039209;28;20043;-69
2022/03/24 04:35:14;;;;;;;3.75;2.03;;;;;;;;;;5042229;28;20035;-69
2022/03/24 04:37:41;;;;;;;3.05;1.77;;;;;;;;;;5044422;28;20030;-68
2022/03/24 04:40:07;;;;;;;2.97;1.73;;;;;;;;;;5048958;28;20107;-69
2022/03/24 04:42:34;;;;;;;3.33;1.55;;;;;;;;;;5047052;28;20234;-70
2022/03/24 04:45:00;;;;;;;4.32;1.50;;;;;;;;;;5043457;28;20025;-70
2022/03/24 04:47:26;;;;;;;3.33;1.60;;;;;;;;;;5043722;28;20025;-69
2022/03/24 04:49:52;;;;;;;3.00;1.48;;;;;;;;;;5043810;28;20029;-69
2022/03/24 04:52:19;;;;;;;3.90;1.77;;;;;;;;;;5045898;28;20462;-70
2022/03/24 04:54:45;;;;;;;2.90;1.60;;;;;;;;;;5048492;28;20025;-69
2022/03/24 04:57:11;;;;;;;3.63;1.60;;;;;;;;;;5045335;28;20431;-69
2022/03/24 04:59:37;;;;;;;2.60;1.50;;;;;;;;;;5043743;28;20029;-69
2022/03/24 05:02:03;;;;;;;3.75;1.60;;;;;;;;;;5043447;28;20043;-70
2022/03/24 05:04:29;;;;;;;2.50;1.60;;;;;;;;;;5042515;28;20040;-70
2022/03/24 05:06:55;;;;;;;3.00;1.65;;;;;;;;;;5051185;28;20025;-70
2022/03/24 05:09:21;;;;;;;2.50;1.38;;;;;;;;;;5033770;28;20103;-70
2022/03/24 05:11:47;;;;;;;3.08;1.40;;;;;;;;;;5036901;28;20044;-70
2022/03/24 05:14:13;;;;;;;2.65;1.20;;;;;;;;;;5031687;28;20499;-70
2022/03/24 05:16:39;;;;;;;3.10;1.60;;;;;;;;;;5043377;28;20025;-70
2022/03/24 05:19:05;;;;;;;3.55;1.80;;;;;;;;;;5048045;28;20057;-70
2022/03/24 05:21:32;;;;;;;5.50;1.90;;;;;;;;;;5048757;28;20068;-70
2022/03/24 05:23:59;;;;;;;4.07;1.80;;;;;;;;;;5039981;28;20540;-69
2022/03/24 05:26:25;;;;;;;2.80;1.48;;;;;;;;;;5042913;28;20080;-69
2022/03/24 05:28:52;;;;;;;3.08;1.60;;;;;;;;;;5031107;28;20117;-69
2022/03/24 05:31:18;;;;;;;2.70;1.45;;;;;;;;;;5044674;28;20058;-70
2022/03/24 05:33:45;;;;;;;2.45;1.42;;;;;;;;;;5048836;28;20396;-69
2022/03/24 05:36:11;;;;;;;3.10;1.52;;;;;;;;;;5044551;28;20111;-70
2022/03/24 05:38:38;;;;;;;2.70;1.45;;;;;;;;;;5043102;28;20024;-70
2022/03/24 05:41:04;;;;;;;2.88;1.50;;;;;;;;;;5043204;28;20056;-71
2022/03/24 05:43:30;;;;;;;3.47;1.65;;;;;;;;;;5042845;28;20033;-69
2022/03/24 05:45:56;;;;;;;5.38;1.77;;;;;;;;;;5050127;28;20040;-70
2022/03/24 05:48:22;;;;;;;2.38;1.30;;;;;;;;;;5043292;28;20039;-70
2022/03/24 05:50:48;;;;;;;2.70;1.30;;;;;;;;;;5043138;28;20454;-70
2022/03/24 05:53:14;;;;;;;2.72;1.50;;;;;;;;;;5042663;28;20059;-70
2022/03/24 05:55:41;;;;;;;2.20;1.35;;;;;;;;;;5042879;28;20026;-70
2022/03/24 05:58:07;;;;;;;2.97;1.52;;;;;;;;;;5048110;28;20064;-70
2022/03/24 06:00:36;;;;;;;2.80;1.38;;;;;;;;;;5045348;28;20028;-70
2022/03/24 06:03:03;;;;;;;2.70;1.52;;;;;;;;;;5044398;28;20052;-68
2022/03/24 06:05:29;;;;;;;2.67;1.40;;;;;;;;;;5045382;28;20025;-70
2022/03/24 06:07:56;;;;;;;2.88;1.70;;;;;;;;;;5046607;28;20464;-70
2022/03/24 06:10:22;;;;;;;4.15;1.60;;;;;;;;;;5032683;28;20397;-70
2022/03/24 06:12:48;;;;;;;2.80;1.60;;;;;;;;;;5053481;28;20037;-70
2022/03/24 06:15:14;;;;;;;3.20;1.52;;;;;;;;;;5046470;28;20096;-70
2022/03/24 06:17:40;;;;;;;3.30;1.70;;;;;;;;;;5046300;28;20127;-70
2022/03/24 06:20:08;;;;;;;2.22;1.25;;;;;;;;;;5048268;28;20029;-69
2022/03/24 06:22:54;;;;;;;2.45;1.42;;;;;;;;;;5046225;28;20026;-70
2022/03/24 06:25:21;;;;;;;2.63;1.48;;;;;;;;;;5048545;28;20053;-70
2022/03/24 06:27:47;;;;;;;2.20;1.48;;;;;;;;;;5063251;28;20111;-69
2022/03/24 06:30:14;;;;;;;3.33;1.65;;;;;;;;;;5045808;28;20048;-69
2022/03/24 06:32:40;;;;;;;2.70;1.40;;;;;;;;;;5047419;28;20039;-70
2022/03/24 06:35:08;;;;;;;2.80;1.55;;;;;;;;;;5046568;28;20033;-70
2022/03/24 06:37:40;;;;;;;3.60;1.67;;;;;;;;;;5045704;28;20490;-70
2022/03/24 06:40:10;;;;;;;4.45;1.30;;;;;;;;;;5051728;28;20107;-76
2022/03/24 06:42:36;;;;;;;3.15;1.45;;;;;;;;;;5049159;28;20433;-69
2022/03/24 06:45:04;;;;;;;3.85;1.40;;;;;;;;;;5045875;28;20108;-71
2022/03/24 06:47:30;;;;;;;3.85;1.48;;;;;;;;;;5046149;28;20099;-72
2022/03/24 06:49:56;;;;;;;1.13;0.80;;;;;;;;;;5046552;28;20508;-73
2022/03/24 06:52:22;;;;;;;2.33;1.40;;;;;;;;;;5047687;28;20093;-68
2022/03/24 06:54:48;;;;;;;5.10;3.40;;;;;;;;;;5052608;28;20696;-70
2022/03/24 06:57:14;;;;;;;8.10;2.40;;;;;;;;;;5046561;28;20039;-72
2022/03/24 06:59:43;;;;;;;4.97;2.83;;;;;;;;;;5046067;28;20536;-72
2022/03/24 07:02:09;;;;;;;4.90;2.88;;;;;;;;;;5047620;28;20039;-67
2022/03/24 07:04:35;;;;;;;5.35;2.90;;;;;;;;;;5045802;28;20512;-68
2022/03/24 07:07:02;;;;;;;4.38;2.97;;;;;;;;;;5052068;28;20025;-68
2022/03/24 07:09:28;;;;;;;3.50;2.10;;;;;;;;;;5035076;28;20035;-67
2022/03/24 07:11:54;;;;;;;3.50;2.00;;;;;;;;;;5040680;28;20076;-69
2022/03/24 07:14:20;;;;;;;3.47;2.05;;;;;;;;;;5045513;28;20033;-70
2022/03/24 07:16:46;;;;;;;4.28;2.22;;;;;;;;;;5044487;28;20034;-75
2022/03/24 07:19:12;;;;;;;3.42;1.90;;;;;;;;;;5049838;28;20096;-73
2022/03/24 07:21:38;;;;;;;2.28;1.67;;;;;;;;;;5049128;28;20137;-74
2022/03/24 07:24:05;;;;;;;3.45;1.60;;;;;;;;;;5045472;28;20029;-74
2022/03/24 07:26:31;;;;;;;5.15;1.85;;;;;;;;;;5046484;28;20029;-70
2022/03/24 07:28:57;;;;;;;3.35;2.20;;;;;;;;;;5043956;28;20469;-71
2022/03/24 07:31:24;;;;;;;6.13;2.90;;;;;;;;;;5032398;28;20509;-73
2022/03/24 07:33:50;;;;;;;4.65;2.45;;;;;;;;;;5052242;28;20022;-69
2022/03/24 07:36:20;;;;;;;4.47;2.03;;;;;;;;;;5019169;28;20397;-65
2022/03/24 07:38:46;;;;;;;3.33;2.00;;;;;;;;;;5017307;28;20484;-69
2022/03/24 07:41:12;;;;;;;3.08;1.60;;;;;;;;;;5032546;28;20033;-68
2022/03/24 07:43:38;;;;;;;3.10;1.63;;;;;;;;;;5014897;28;20044;-68
2022/03/24 07:46:04;;;;;;;3.88;2.38;;;;;;;;;;5015592;28;20091;-71
2022/03/24 07:48:31;;;;;;;4.75;2.85;;;;;;;;;;5032524;28;20138;-69
2022/03/24 07:50:58;;;;;;;3.75;2.20;;;;;;;;;;5017177;28;20127;-68
2022/03/24 07:53:24;;;;;;;4.18;2.30;;;;;;;;;;5017661;28;20041;-66
2022/03/24 07:55:50;;;;;;;5.47;2.10;;;;;;;;;;5015865;28;20021;-73
2022/03/24 07:58:17;;;;;;;3.90;1.70;;;;;;;;;;5013822;28;20025;-74
2022/03/24 08:00:44;;;;;;;3.75;1.58;;;;;;;;;;5031593;28;20030;-72
2022/03/24 08:03:10;;;;;;;2.60;1.67;;;;;;;;;;5017030;28;20044;-71
2022/03/24 08:05:36;;;;;;;3.67;1.85;;;;;;;;;;5017273;28;20022;-70
2022/03/24 08:08:04;;;;;;;2.05;1.48;;;;;;;;;;5017072;28;20116;-68
2022/03/24 08:10:30;;;;;;;;;;;;;;;;;;5028200;28;20064;-68
2022/03/24 08:12:56;;;;;;;2.47;1.45;;;;;;;;;;5015362;28;19952;-68
2022/03/24 08:15:23;;;;;;;3.15;1.70;;;;;;;;;;5025103;28;20078;-70
2022/03/24 08:17:49;;;;;;;3.38;1.25;;;;;;;;;;5020734;28;20030;-70
2022/03/24 08:20:15;;;;;;;4.80;1.67;;;;;;;;;;5016787;28;20057;-73
2022/03/24 08:22:41;;;;;;;1.85;1.30;;;;;;;;;;5012910;28;20025;-74
2022/03/24 08:25:11;;;;;;;2.45;1.35;;;;;;;;;;5043660;28;20037;-72
2022/03/24 08:27:37;;;;;;;1.70;1.25;;;;;;;;;;5016935;28;20034;-72
2022/03/24 08:30:04;;;;;;;3.63;1.50;;;;;;;;;;5016429;28;20091;-71
2022/03/24 08:32:30;;;;;;;2.28;1.40;;;;;;;;;;5017129;28;20068;-70
2022/03/24 08:34:56;;;;;;;2.92;1.33;;;;;;;;;;5025110;28;20564;-71
2022/03/24 08:37:22;;;;;;;1.92;1.30;;;;;;;;;;5018421;28;20030;-68
2022/03/24 08:39:48;;;;;;;2.30;1.58;;;;;;;;;;5011518;28;20104;-67
2022/03/24 08:42:14;;;;;;;6.57;1.60;;;;;;;;;;5012155;28;20038;-69
2022/03/24 08:44:40;;;;;;;2.35;1.40;;;;;;;;;;5011788;28;20045;-66
2022/03/24 08:47:06;;;;;;;2.17;1.40;;;;;;;;;;5027001;28;20041;-66
2022/03/24 08:49:32;;;;;;;2.63;1.33;;;;;;;;;;5008227;28;20386;-66
2022/03/24 08:51:59;;;;;;;2.55;1.40;;;;;;;;;;5010789;28;20034;-62
2022/03/24 08:54:25;;;;;;;1.88;1.40;;;;;;;;;;5050420;28;20093;-63
2022/03/24 08:56:51;;;;;;;2.67;1.17;;;;;;;;;;5037956;28;20120;-62
2022/03/24 08:59:18;;;;;;;2.92;1.30;;;;;;;;;;5039029;28;20037;-62
2022/03/24 09:01:44;;;;;;;2.70;1.20;;;;;;;;;;5039389;28;20485;-63
2022/03/24 09:04:10;;;;;;;2.67;1.40;;;;;;;;;;5048255;28;20147;-63
2022/03/24 09:06:37;;;;;;;2.10;1.30;;;;;;;;;;5045535;28;20100;-63
2022/03/24 09:09:03;;;;;;;3.20;1.75;;;;;;;;;;5027287;28;20087;-63
2022/03/24 09:11:29;;;;;;;2.53;1.20;;;;;;;;;;5035940;28;20027;-63
2022/03/24 09:13:55;;;;;;;2.80;1.33;;;;;;;;;;5038697;28;20025;-68
2022/03/24 09:16:21;;;;;;;2.30;1.35;;;;;;;;;;5028058;28;20143;-63
2022/03/24 09:18:47;;;;;;;1.77;1.40;;;;;;;;;;5048825;28;20055;-63
2022/03/24 09:21:13;;;;;;;1.83;1.10;;;;;;;;;;5045153;28;20029;-65
2022/03/24 09:23:39;;;;;;;2.42;1.40;;;;;;;;;;5043349;28;20083;-65
2022/03/24 09:26:05;;;;;;;2.42;1.60;;;;;;;;;;5043571;28;20029;-65
2022/03/24 09:28:32;;;;;;;1.98;1.20;;;;;;;;;;5042765;28;20032;-65
2022/03/24 09:30:58;;;;;;;4.72;1.35;;;;;;;;;;5050357;28;20049;-63
2022/03/24 09:33:24;;;;;;;1.80;1.10;;;;;;;;;;5045348;28;20443;-66
2022/03/24 09:35:51;;;;;;;1.60;1.30;;;;;;;;;;5043385;28;20017;-65
2022/03/24 09:38:17;;;;;;;3.15;1.60;;;;;;;;;;5043419;28;20033;-65
2022/03/24 09:40:43;;;;;;;2.88;1.50;;;;;;;;;;5042610;28;20497;-71
2022/03/24 09:43:09;;;;;;;1.58;1.23;;;;;;;;;;5037642;28;20116;-72
2022/03/24 09:45:37;;;;;;;2.00;1.30;;;;;;;;;;5040817;28;20041;-71
2022/03/24 09:48:06;;;;;;;3.08;1.42;;;;;;;;;;5036311;28;20059;-72
2022/03/24 09:50:33;;;;;;;2.00;1.23;;;;;;;;;;5038706;28;20036;-72
2022/03/24 09:53:00;;;;;;;2.17;1.48;;;;;;;;;;5039164;28;20112;-73
2022/03/24 09:55:27;;;;;;;3.83;1.55;;;;;;;;;;5038616;28;20030;-72
2022/03/24 09:57:53;;;;;;;2.70;1.48;;;;;;;;;;5046765;28;20036;-72
2022/03/24 10:00:20;;;;;;;2.55;1.48;;;;;;;;;;5038103;28;20052;-74
2022/03/24 10:03:04;;;;;;;2.17;1.63;;;;;;;;;;5038985;28;20052;-72
2022/03/24 10:05:30;;;;;;;2.05;1.25;;;;;;;;;;5039055;28;20064;-72
2022/03/24 10:08:02;;;;;;;2.10;1.58;;;;;;;;;;5040567;28;20527;-72
2022/03/24 10:10:31;;;;;;;2.83;1.50;;;;;;;;;;5007254;28;20540;-72
2022/03/24 10:12:57;;;;;;;2.33;1.25;;;;;;;;;;5048301;28;20048;-67
2022/03/24 10:15:23;;;;;;;2.63;1.60;;;;;;;;;;5043035;28;20021;-70
2022/03/24 10:17:51;;;;;;;2.03;1.35;;;;;;;;;;5016466;28;20026;-69
2022/03/24 10:20:17;;;;;;;2.97;1.35;;;;;;;;;;5014304;28;20112;-70
2022/03/24 10:22:56;;;;;;;1.83;1.40;;;;;;;;;;5013214;28;20077;-70
2022/03/24 10:25:31;;;;;;;2.97;1.45;;;;;;;;;;5011946;28;20026;-68
2022/03/24 10:28:04;;;;;;;2.15;1.48;;;;;;;;;;5026328;28;20496;-68
2022/03/24 10:30:45;;;;;;;2.00;1.38;;;;;;;;;;5028536;28;20054;-72
2022/03/24 10:33:25;;;;;;;2.53;1.30;;;;;;;;;;5014889;28;20454;-72
2022/03/24 10:35:51;;;;;;;2.67;1.73;;;;;;;;;;5014865;28;20030;-71
2022/03/24 10:38:31;;;;;;;2.33;1.50;;;;;;;;;;5030145;28;20037;-69
2022/03/24 10:40:57;;;;;;;4.50;1.60;;;;;;;;;;5030001;28;20048;-73
2022/03/24 10:43:23;;;;;;;3.38;1.85;;;;;;;;;;5011277;28;20490;-72
2022/03/24 10:45:49;;;;;;;5.00;1.80;;;;;;;;;;5014787;28;20421;-74
2022/03/24 10:48:21;;;;;;;3.80;2.13;;;;;;;;;;5015738;28;20030;-72
2022/03/24 10:50:47;;;;;;;5.35;2.25;;;;;;;;;;5030442;28;20037;-70
2022/03/24 10:53:19;;;;;;;4.30;2.15;;;;;;;;;;5032823;28;20037;-70
2022/03/24 10:55:47;;;;;;;4.70;2.40;;;;;;;;;;5019737;28;20022;-69
2022/03/24 10:58:25;;;;;;;4.35;2.70;;;;;;;;;;5050241;28;20437;-72
2022/03/24 11:00:52;;;;;;;3.55;2.40;;;;;;;;;;5052819;28;20035;-64
2022/03/24 11:03:19;;;;;;;4.13;2.67;;;;;;;;;;5046925;28;20514;-74
2022/03/24 11:05:45;;;;;;;3.83;2.30;;;;;;;;;;5045549;28;20832;-70
2022/03/24 11:08:11;;;;;;;4.00;2.50;;;;;;;;;;5043887;28;20112;-74
2022/03/24 11:10:47;;;;;;;4.00;2.55;;;;;;;;;;5031159;28;20030;-74
2022/03/24 11:13:33;;;;;;;4.32;2.55;;;;;;;;;;5047994;28;20299;-71
2022/03/24 11:16:00;;;;;;;4.90;2.42;;;;;;;;;;5040043;28;20037;-74
2022/03/24 11:18:26;;;;;;;4.07;2.35;;;;;;;;;;5046584;28;20038;-76
2022/03/24 11:20:54;;;;;;;4.15;2.55;;;;;;;;;;5045170;28;20473;-69
2022/03/24 11:23:20;;;;;;;3.13;2.03;;;;;;;;;;5045805;28;20047;-69
2022/03/24 11:25:46;;;;;;;3.63;2.47;;;;;;;;;;5034468;28;20025;-71
2022/03/24 11:28:14;;;;;;;4.82;2.80;;;;;;;;;;5030996;28;20018;-69
2022/03/24 11:30:40;;;;;;;;;;;;;;;;;;5032698;28;20037;-69
2022/03/24 11:33:07;;;;;;;4.25;2.47;;;;;;;;;;5031965;28;19924;-69
2022/03/24 11:35:34;;;;;;;2.78;2.28;;;;;;;;;;5031946;28;20104;-69
2022/03/24 11:38:02;;;;;;;4.15;2.70;;;;;;;;;;5030986;28;20106;-70
2022/03/24 11:40:33;;;;;;;4.50;2.83;;;;;;;;;;5030959;28;20085;-70
2022/03/24 11:43:00;;;;;;;5.28;2.60;;;;;;;;;;5031672;28;20033;-68
2022/03/24 11:45:29;;;;;;;4.05;2.83;;;;;;;;;;5047270;28;20013;-69
2022/03/24 11:48:09;;;;;;;6.22;2.78;;;;;;;;;;5032355;28;20021;-70
2022/03/24 11:50:48;;;;;;;4.32;2.70;;;;;;;;;;5033745;28;20032;-68
2022/03/24 11:53:35;;;;;;;4.80;3.05;;;;;;;;;;5045842;28;20060;-68
2022/03/24 11:56:01;;;;;;;4.80;2.72;;;;;;;;;;5045550;28;20043;-69
2022/03/24 11:58:46;;;;;;;3.80;2.78;;;;;;;;;;5045072;28;20104;-69
2022/03/24 12:01:17;;;;;;;4.30;2.72;;;;;;;;;;5060629;28;20552;-70
2022/03/24 12:03:45;;;;;;;3.60;2.63;;;;;;;;;;5048992;28;20469;-70
2022/03/24 12:06:15;;;;;;;4.07;2.80;;;;;;;;;;5044043;28;20047;-70
2022/03/24 12:08:44;;;;;;;3.97;2.42;;;;;;;;;;5039803;28;20032;-70
2022/03/24 12:11:28;;;;;;;6.25;3.28;;;;;;;;;;5035365;28;20120;-70
2022/03/24 12:13:55;;;;;;;4.32;2.70;;;;;;;;;;5045451;28;20029;-70
2022/03/24 12:16:24;;;;;;;5.75;3.17;;;;;;;;;;5045486;28;20049;-75
2022/03/24 12:18:50;;;;;;;5.00;3.10;;;;;;;;;;5050369;28;20536;-75
2022/03/24 12:21:20;;;;;;;4.03;2.63;;;;;;;;;;5044442;28;20108;-76
2022/03/24 12:24:04;;;;;;;4.38;2.90;;;;;;;;;;5045352;28;20116;-74
2022/03/24 12:26:31;;;;;;;4.93;2.97;;;;;;;;;;5044302;28;20105;-73
2022/03/24 12:29:12;;;;;;;4.72;2.85;;;;;;;;;;5044645;28;20550;-74
2022/03/24 12:31:57;;;;;;;3.33;2.60;;;;;;;;;;5029975;28;20057;-73
2022/03/24 12:34:44;;;;;;;3.65;2.60;;;;;;;;;;5045866;28;20029;-59
2022/03/24 12:37:31;;;;;;;5.15;2.70;;;;;;;;;;5045581;28;20041;-58
2022/03/24 12:40:06;;;;;;;4.20;3.00;;;;;;;;;;5051281;28;20497;-58
2022/03/24 12:42:54;;;;;;;4.95;2.97;;;;;;;;;;5047439;28;20033;-60
2022/03/24 12:45:23;;;;;;;4.95;2.80;;;;;;;;;;5043752;28;20075;-59
2022/03/24 12:47:49;;;;;;;7.32;3.10;;;;;;;;;;5043317;28;20021;-67
2022/03/24 12:50:21;;;;;;;3.80;2.72;;;;;;;;;;5042779;28;20072;-76
2022/03/24 12:53:07;;;;;;;4.68;3.17;;;;;;;;;;5043757;28;20494;-71
2022/03/24 12:55:33;;;;;;;6.15;2.92;;;;;;;;;;5013674;28;20033;-72
2022/03/24 12:58:01;;;;;;;4.03;2.88;;;;;;;;;;5050662;28;20028;-71
2022/03/24 13:00:30;;;;;;;4.05;2.95;;;;;;;;;;5044881;28;20025;-67
2022/03/24 13:02:56;;;;;;;5.03;3.30;;;;;;;;;;5044745;28;20048;-67
2022/03/24 13:05:24;;;;;;;6.20;3.38;;;;;;;;;;5043741;28;20241;-67
2022/03/24 13:07:52;;;;;;;6.15;3.10;;;;;;;;;;5043002;28;20480;-67
2022/03/24 13:10:18;;;;;;;5.03;3.10;;;;;;;;;;5030570;28;20039;-68
2022/03/24 13:12:46;;;;;;;5.55;3.03;;;;;;;;;;5048278;28;20115;-68
2022/03/24 13:15:18;;;;;;;5.60;3.25;;;;;;;;;;5042313;28;20025;-68
2022/03/24 13:17:48;;;;;;;7.60;3.35;;;;;;;;;;5043070;28;20029;-67
2022/03/24 13:20:14;;;;;;;5.18;2.90;;;;;;;;;;5045107;28;20062;-68
2022/03/24 13:22:40;;;;;;;5.72;2.90;;;;;;;;;;5043130;28;20395;-69
2022/03/24 13:25:07;;;;;;;3.88;3.20;;;;;;;;;;5049279;28;20025;-68
2022/03/24 13:27:37;;;;;;;5.13;3.28;;;;;;;;;;5047663;28;20032;-66
2022/03/24 13:30:14;;;;;;;5.95;3.10;;;;;;;;;;5042722;28;20025;-70
2022/03/24 13:32:41;;;;;;;5.30;2.80;;;;;;;;;;5042880;28;20045;-67
2022/03/24 13:35:10;;;;;;;4.95;3.30;;;;;;;;;;5044658;28;20049;-67
2022/03/24 13:37:37;;;;;;;3.80;2.75;;;;;;;;;;5042256;28;20056;-65
2022/03/24 13:40:04;;;;;;;4.78;3.00;;;;;;;;;;5048961;28;20021;-70
2022/03/24 13:42:30;;;;;;;4.18;2.88;;;;;;;;;;5046344;28;20072;-70
2022/03/24 13:44:56;;;;;;;4.63;2.55;;;;;;;;;;5042690;28;20057;-69
2022/03/24 13:47:25;;;;;;;4.18;2.42;;;;;;;;;;5042590;28;20563;-68
2022/03/24 13:50:17;;;;;;;4.05;2.70;;;;;;;;;;5044049;28;20044;-68
2022/03/24 13:52:45;;;;;;;4.82;2.50;;;;;;;;;;5014539;28;20092;-68
2022/03/24 13:55:22;;;;;;;3.95;2.45;;;;;;;;;;5047314;28;20028;-69
2022/03/24 13:57:51;;;;;;;3.30;2.38;;;;;;;;;;5049008;28;20033;-69
2022/03/24 14:00:38;;;;;;;3.60;2.53;;;;;;;;;;5042853;28;20111;-69
2022/03/24 14:03:07;;;;;;;3.47;2.45;;;;;;;;;;5043050;28;20040;-69
2022/03/24 14:05:52;;;;;;;4.82;2.60;;;;;;;;;;5042533;28;20029;-69
2022/03/24 14:08:27;;;;;;;4.15;2.75;;;;;;;;;;5042748;28;20029;-69
2022/03/24 14:10:55;;;;;;;3.75;2.70;;;;;;;;;;5042870;28;20473;-71
2022/03/24 14:13:21;;;;;;;4.50;2.63;;;;;;;;;;5044743;28;20457;-71
2022/03/24 14:15:48;;;;;;;4.78;3.10;;;;;;;;;;5048918;28;20100;-68
2022/03/24 14:18:18;;;;;;;5.88;2.85;;;;;;;;;;5042454;28;20096;-69
2022/03/24 14:20:45;;;;;;;4.95;3.03;;;;;;;;;;5042414;28;20472;-68
2022/03/24 14:23:24;;;;;;;4.57;3.03;;;;;;;;;;5044514;28;20063;-69
2022/03/24 14:25:50;;;;;;;4.20;3.00;;;;;;;;;;5045308;28;20635;-69
2022/03/24 14:28:36;;;;;;;4.68;3.00;;;;;;;;;;5049508;28;20104;-70
2022/03/24 14:31:25;;;;;;;4.68;3.05;;;;;;;;;;5061761;28;20049;-71
2022/03/24 14:33:54;;;;;;;4.45;3.25;;;;;;;;;;5046105;28;20049;-72
2022/03/24 14:36:21;;;;;;;4.32;2.60;;;;;;;;;;5046375;28;20361;-69
2022/03/24 14:39:06;;;;;;;4.30;2.75;;;;;;;;;;5046504;28;20045;-69
2022/03/24 14:41:32;;;;;;;5.40;2.85;;;;;;;;;;5047529;28;20082;-70
2022/03/24 14:43:58;;;;;;;5.72;2.95;;;;;;;;;;5047578;28;20020;-70
2022/03/24 14:46:24;;;;;;;6.18;2.90;;;;;;;;;;5035916;28;20083;-70
2022/03/24 14:48:51;;;;;;;7.45;3.00;;;;;;;;;;5048398;28;20534;-70